»·PEaware :: UAL465 KDEN-KBIL

UAL465 :: KDEN-KBIL

FLIGHT INFORMATION

Flight Status: Arrived
Operator:
United Airlines
More flights by this operator :: More flights under this callsign
Pilot: Anonymous 18910 (18910)
Aircraft: AIRBUS A319
(A319)
More flights by this aircraft type
Origin: KDEN Denver Intl
United States
Destination: KBIL Billings Logan Intl
United States
More flights between these airports :: More routes between these airports
Route: RIKKK4 FISAR CZI CUSGA BGHRN3
File this flight plan on PilotEdge
Remarks:
Altitude:
(Current/Filed)
34,000ft
Speed:
(Current/Filed)
400kts
Departed: 24-Feb-19 05:10 PM
Arrived: 24-Feb-19 06:43 PM
Distance/Time
Traveled:
395nm/1:33
Distance/Time
To Go:
Arrived

Flight Plot

Page will automatically refresh every two minutes.

Flight plan parsing failed; only flown route is shown


Map Options




Map Legend


Flown Route
Filed Route
Departure Airport
Arrival Airport
Navaid (VOR, NDB)
Fix

Horizontal Profiles

Position Reports

Time Latitude Longitude Heading Altitude Ground
Speed
24-Feb-19 16:49 39.859435 -104.679629 171 5445ft 0kts
24-Feb-19 16:50 39.859435 -104.679629 171 5445ft 0kts
24-Feb-19 16:51 39.859435 -104.679629 171 5445ft 0kts
24-Feb-19 16:52 39.859435 -104.679629 171 5445ft 0kts
24-Feb-19 16:53 39.859435 -104.679629 171 5445ft 0kts
24-Feb-19 16:54 39.859435 -104.679629 171 5445ft 0kts
24-Feb-19 16:55 39.859435 -104.679629 171 5445ft 0kts
24-Feb-19 16:56 39.859435 -104.679629 171 5445ft 0kts
24-Feb-19 16:57 39.859435 -104.679629 171 5445ft 0kts
24-Feb-19 16:58 39.859435 -104.679629 171 5445ft 0kts
24-Feb-19 16:59 39.859466 -104.679635 171 5445ft 1kts
24-Feb-19 17:00 39.860085 -104.679704 203 5445ft 2kts
24-Feb-19 17:01 39.860087 -104.679092 314 5445ft 1kts
24-Feb-19 17:02 39.860087 -104.679092 314 5445ft 0kts
24-Feb-19 17:03 39.860192 -104.679231 314 5445ft 0kts
24-Feb-19 17:04 39.860752 -104.680005 285 5445ft 12kts
24-Feb-19 17:05 39.859369 -104.683952 181 5445ft 16kts
24-Feb-19 17:06 39.852846 -104.684043 180 5445ft 24kts
24-Feb-19 17:07 39.845252 -104.684075 181 5445ft 25kts
24-Feb-19 17:08 39.841809 -104.684147 181 5445ft 0kts
24-Feb-19 17:09 39.840669 -104.687254 269 5445ft 56kts
24-Feb-19 17:10 39.840411 -104.741480 264 6400ft 186kts
24-Feb-19 17:11 39.864159 -104.806494 299 8239ft 229kts
24-Feb-19 17:12 39.903169 -104.887216 301 10164ft 288kts
24-Feb-19 17:13 39.977230 -104.948861 346 11900ft 360kts
24-Feb-19 17:14 40.079310 -104.939471 11 14626ft 381kts
24-Feb-19 17:15 40.168731 -104.857149 33 17001ft 404kts
24-Feb-19 17:16 40.270452 -104.810205 1 19178ft 390kts
24-Feb-19 17:17 40.378907 -104.807161 348 21102ft 391kts
24-Feb-19 17:18 40.488917 -104.819243 348 22884ft 402kts
24-Feb-19 17:19 40.601426 -104.830925 347 24527ft 409kts
24-Feb-19 17:20 40.717387 -104.843154 347 25462ft 430kts
24-Feb-19 17:21 40.834482 -104.873549 332 26466ft 425kts
24-Feb-19 17:22 40.945100 -104.928942 332 27842ft 423kts
24-Feb-19 17:23 41.054771 -104.982640 331 29322ft 416kts
24-Feb-19 17:24 41.162744 -105.035954 330 30763ft 411kts
24-Feb-19 17:25 41.269460 -105.088844 329 32054ft 407kts
24-Feb-19 17:26 41.375117 -105.141324 329 33227ft 404kts
24-Feb-19 17:27 41.480078 -105.193777 328 34028ft 402kts
24-Feb-19 17:28 41.585104 -105.245808 329 34025ft 403kts
24-Feb-19 17:29 41.690557 -105.295654 329 34028ft 403kts
24-Feb-19 17:30 41.796563 -105.346095 329 34030ft 403kts
24-Feb-19 17:31 41.902152 -105.396442 329 34034ft 403kts
24-Feb-19 17:32 42.007427 -105.446830 329 34038ft 402kts
24-Feb-19 17:33 42.112850 -105.497487 329 34056ft 402kts
24-Feb-19 17:34 42.218316 -105.548325 329 34052ft 401kts
24-Feb-19 17:35 42.323031 -105.598989 329 34031ft 401kts
24-Feb-19 17:36 42.428080 -105.649992 329 34010ft 401kts
24-Feb-19 17:37 42.532974 -105.701109 329 34034ft 399kts
24-Feb-19 17:38 42.637712 -105.752332 329 34001ft 400kts
24-Feb-19 17:40 42.742192 -105.803582 329 34033ft 399kts
24-Feb-19 17:41 42.846351 -105.854905 329 34028ft 399kts
24-Feb-19 17:42 42.950438 -105.906335 329 34024ft 397kts
24-Feb-19 17:43 43.054386 -105.957913 329 34013ft 395kts
24-Feb-19 17:44 43.157505 -106.009247 330 34008ft 394kts
24-Feb-19 17:45 43.260809 -106.060869 330 33933ft 394kts
24-Feb-19 17:46 43.363672 -106.112435 330 33981ft 393kts
24-Feb-19 17:47 43.466557 -106.164240 330 33970ft 393kts
24-Feb-19 17:48 43.568938 -106.215924 330 34017ft 391kts
24-Feb-19 17:49 43.671246 -106.267811 330 34002ft 392kts
24-Feb-19 17:50 43.773249 -106.319711 330 33995ft 392kts
24-Feb-19 17:51 43.875935 -106.372161 330 33988ft 391kts
24-Feb-19 17:52 43.977976 -106.424522 329 33982ft 390kts
24-Feb-19 17:53 44.064235 -106.506954 313 33991ft 372kts
24-Feb-19 17:54 44.144814 -106.597238 314 34023ft 372kts
24-Feb-19 17:55 44.225313 -106.687394 314 34027ft 372kts
24-Feb-19 17:56 44.306048 -106.778131 314 34030ft 372kts
24-Feb-19 17:57 44.386162 -106.868429 314 33685ft 366kts
24-Feb-19 17:58 44.466036 -106.958901 314 32687ft 369kts
24-Feb-19 17:58 44.532265 -107.034085 314 31861ft 367kts
24-Feb-19 18:00 44.624268 -107.138951 313 30703ft 362kts
24-Feb-19 18:01 44.702342 -107.228333 313 29710ft 361kts
24-Feb-19 18:02 44.778566 -107.315816 313 27411ft 351kts
24-Feb-19 18:02 44.841655 -107.388622 313 25013ft 351kts
24-Feb-19 18:03 44.917818 -107.476770 313 23497ft 356kts
24-Feb-19 18:05 45.005907 -107.579054 313 21589ft 348kts
24-Feb-19 18:05 45.067546 -107.650805 313 20091ft 341kts
24-Feb-19 18:06 45.140121 -107.735685 313 18293ft 336kts
24-Feb-19 18:07 45.211617 -107.819592 313 16491ft 329kts
24-Feb-19 18:08 45.279958 -107.899466 314 14693ft 310kts
24-Feb-19 18:09 45.345490 -107.975916 314 12891ft 299kts
24-Feb-19 18:10 45.409799 -108.051242 316 11093ft 301kts
24-Feb-19 18:11 45.475154 -108.127945 319 9290ft 307kts
24-Feb-19 18:12 45.538114 -108.203357 312 8841ft 287kts
24-Feb-19 18:13 45.585461 -108.294948 306 8512ft 284kts
24-Feb-19 18:14 45.631660 -108.384771 306 8106ft 271kts
24-Feb-19 18:15 45.673465 -108.466510 306 7992ft 247kts
24-Feb-19 18:16 45.705336 -108.552884 290 7915ft 246kts
24-Feb-19 18:17 45.730327 -108.642060 291 6866ft 238kts
24-Feb-19 18:18 45.753376 -108.729898 290 5989ft 225kts
24-Feb-19 18:19 45.774238 -108.810996 290 5989ft 214kts
24-Feb-19 18:20 45.798984 -108.884311 333 5952ft 203kts
24-Feb-19 18:21 45.849209 -108.862476 30 6003ft 195kts
24-Feb-19 18:22 45.862974 -108.793835 90 5742ft 188kts
24-Feb-19 18:23 45.860854 -108.726717 94 5468ft 141kts
24-Feb-19 18:24 45.845581 -108.674350 110 5495ft 141kts
24-Feb-19 18:25 45.829511 -108.618057 110 5978ft 171kts
24-Feb-19 18:26 45.811287 -108.552523 110 6003ft 177kts
24-Feb-19 18:27 45.791078 -108.488881 138 5945ft 179kts
24-Feb-19 18:28 45.757790 -108.526269 260 6058ft 200kts
24-Feb-19 18:29 45.754204 -108.605762 270 5999ft 200kts
24-Feb-19 18:30 45.754915 -108.685232 270 6000ft 199kts
24-Feb-19 18:31 45.755695 -108.764237 270 5994ft 198kts
24-Feb-19 18:32 45.766953 -108.840980 285 5988ft 197kts
24-Feb-19 18:33 45.786824 -108.913074 310 5988ft 196kts
24-Feb-19 18:34 45.825750 -108.964825 357 5957ft 192kts
24-Feb-19 18:35 45.860237 -108.915193 75 6008ft 189kts
24-Feb-19 18:36 45.874009 -108.842693 75 5995ft 188kts
24-Feb-19 18:37 45.872934 -108.772135 113 5575ft 176kts
24-Feb-19 18:38 45.857142 -108.715908 106 5329ft 128kts
24-Feb-19 18:39 45.843950 -108.668173 106 5304ft 130kts
24-Feb-19 18:40 45.830622 -108.620080 106 4674ft 128kts
24-Feb-19 18:41 45.817466 -108.572650 106 3923ft 126kts
24-Feb-19 18:42 45.807766 -108.537360 158 3666ft 12kts
24-Feb-19 18:43 45.805437 -108.538377 189 3666ft 5kts
24-Feb-19 18:44 45.804159 -108.537551 178 3666ft 1kts
24-Feb-19 18:45 45.804105 -108.537549 178 3666ft 0kts
24-Feb-19 18:46 45.804100 -108.537549 178 3666ft 0kts
24-Feb-19 18:47 45.804097 -108.537549 178 3666ft 0kts
24-Feb-19 18:48 45.804093 -108.537549 178 3666ft 0kts
24-Feb-19 18:49 45.804090 -108.537549 178 3666ft 0kts
24-Feb-19 18:50 45.804086 -108.537549 178 3666ft 0kts

Navigation Log

Ident Type
Flight plan parsing failed, navigation log unavailable